Troy, North Carolina
Current Conditions -  °F | °C
As of 9:35 PM on Wednesday 22 Oct 2014 (Local Time) from KVUJ Reporting Station
Clear Clear  
Wind Chill: 53°   Ceiling: Unl
Heat Index: 53°   Visibility: 10mi
Dew Point: 41°   Wind: 7mph
Humidity: 64%   Direction: 340°NNW
Pressure: 30.12"   Gusts: NA
Location:  35.36°N, 79.89°W
Report Text: KVUJ 230135Z AUTO 34006KT 10SM CLR 11/05 A3012 RMK AO2 T01140048
Loading
Personal Weather Stations






























Interactive Weather Map New forecast layout! Learn more

10-Day Weather Forecast

Advertisements
Track Severe Weather on mobile